Time;durP1;ratioP1;P1;durP2;ratioP2;P2;SDS_P1;SDS_P2;PMS_P1;PMS_P2;Temp;Humidity;BMP_temperature;BMP_pressure;BME280_temperature;BME280_humidity;BME280_pressure;Samples;Min_cycle;Max_cycle;Signal;HPM_P1;HPM_P2
2022/12/17 13:07:23;;;;;;;113.40;53.80;;;4.90;99.90;;;;;;5055371;28;20032;-78
2022/12/17 13:09:52;;;;;;;103.40;51.70;;;4.90;99.90;;;;;;5055424;28;20025;-79
2022/12/17 13:12:39;;;;;;;121.25;60.40;;;4.90;99.90;;;;;;5054939;28;20017;-78
2022/12/17 13:15:05;;;;;;;110.28;53.72;;;4.90;99.90;;;;;;5054834;28;20131;-80
2022/12/17 13:17:44;;;;;;;149.45;74.18;;;4.90;99.90;;;;;;5054816;28;20504;-78
2022/12/17 13:20:29;;;;;;;114.90;58.40;;;4.90;99.90;;;;;;5053835;28;20028;-79
2022/12/17 13:23:25;;;;;;;92.00;47.92;;;4.90;99.90;;;;;;5054875;28;20462;-79
2022/12/17 13:26:22;;;;;;;94.97;48.20;;;4.80;99.90;;;;;;5055356;28;20452;-79
2022/12/17 13:29:00;;;;;;;97.82;46.10;;;4.90;99.90;;;;;;5053996;28;20040;-79
2022/12/17 13:31:48;;;;;;;90.97;46.53;;;4.80;99.90;;;;;;5054640;28;20480;-79
2022/12/17 13:34:25;;;;;;;90.45;46.30;;;4.80;99.90;;;;;;5054656;28;20024;-79
2022/12/17 13:37:14;;;;;;;109.50;51.88;;;4.70;99.90;;;;;;5054928;28;20104;-79
2022/12/17 13:40:10;;;;;;;90.05;44.50;;;4.80;99.90;;;;;;5053664;28;20097;-80
2022/12/17 13:42:36;;;;;;;86.13;42.72;;;4.80;99.90;;;;;;5054559;28;20091;-80
2022/12/17 13:45:02;;;;;;;99.55;48.33;;;4.70;99.90;;;;;;5054748;28;20021;-79
2022/12/17 13:47:31;;;;;;;85.82;43.28;;;4.80;99.90;;;;;;5053325;28;20099;-79
2022/12/17 13:49:59;;;;;;;89.10;46.47;;;4.70;99.90;;;;;;5069820;28;20040;-80
2022/12/17 13:52:26;;;;;;;80.63;42.20;;;4.80;99.90;;;;;;5054733;28;20100;-79
2022/12/17 13:54:53;;;;;;;89.63;43.28;;;4.70;99.90;;;;;;5054535;28;20056;-78
2022/12/17 13:57:20;;;;;;;88.63;45.30;;;4.70;99.90;;;;;;5054058;28;20024;-79
2022/12/17 13:59:54;;;;;;;89.43;45.72;;;4.80;99.90;;;;;;5054653;28;20098;-80
2022/12/17 14:02:37;;;;;;;92.72;44.10;;;4.80;99.90;;;;;;5054184;28;20055;-78
2022/12/17 14:05:07;;;;;;;88.68;44.55;;;4.80;99.90;;;;;;5054478;28;20024;-79
2022/12/17 14:07:37;;;;;;;90.93;46.33;;;4.80;99.90;;;;;;5053967;28;20367;-78
2022/12/17 14:10:04;;;;;;;106.72;51.15;;;4.90;99.90;;;;;;5052881;28;20031;-80
2022/12/17 14:12:33;;;;;;;95.25;48.67;;;4.90;99.90;;;;;;5054336;28;20020;-79
2022/12/17 14:15:01;;;;;;;89.70;44.30;;;4.90;99.90;;;;;;5053506;28;20020;-78
2022/12/17 14:17:47;;;;;;;79.25;40.72;;;4.90;99.90;;;;;;5069040;28;20045;-79
2022/12/17 14:20:24;;;;;;;109.68;53.30;;;4.80;99.90;;;;;;5053786;28;20025;-79
2022/12/17 14:22:58;;;;;;;102.30;49.72;;;4.80;99.90;;;;;;5054193;28;20032;-79
2022/12/17 14:25:34;;;;;;;102.60;49.13;;;4.80;99.90;;;;;;5053864;28;20044;-78
2022/12/17 14:28:06;;;;;;;98.63;46.65;;;4.80;99.90;;;;;;5053967;28;20036;-78
2022/12/17 14:30:36;;;;;;;104.43;49.53;;;4.80;99.90;;;;;;5053803;28;20452;-78
2022/12/17 14:33:03;;;;;;;102.07;47.58;;;4.80;99.90;;;;;;5054195;28;20672;-81
2022/12/17 14:35:34;;;;;;;105.57;53.58;;;4.80;99.90;;;;;;5052586;28;20401;-79
2022/12/17 14:37:59;;;;;;;108.13;50.17;;;4.80;99.90;;;;;;5053730;28;20039;-79
2022/12/17 14:40:26;;;;;;;120.10;53.60;;;4.80;99.90;;;;;;5053999;28;20033;-79
2022/12/17 14:42:57;;;;;;;100.45;45.22;;;4.80;99.90;;;;;;5054042;28;20471;-80
2022/12/17 14:45:25;;;;;;;111.50;53.63;;;4.70;99.90;;;;;;5053405;28;20420;-78
2022/12/17 14:47:59;;;;;;;106.22;49.75;;;4.70;99.90;;;;;;5069146;28;20029;-79
2022/12/17 14:50:34;;;;;;;129.02;57.38;;;4.70;99.90;;;;;;5053440;28;20036;-78
2022/12/17 14:53:21;;;;;;;115.30;53.42;;;4.70;99.90;;;;;;5068975;28;20028;-78
2022/12/17 14:55:51;;;;;;;113.18;53.10;;;4.70;99.90;;;;;;5053301;28;20472;-78
2022/12/17 14:58:20;;;;;;;119.95;54.10;;;4.70;99.90;;;;;;5053412;28;20432;-79
2022/12/17 15:01:04;;;;;;;116.18;53.80;;;4.60;99.90;;;;;;5053555;28;20025;-79
2022/12/17 15:03:38;;;;;;;119.68;54.78;;;4.60;99.90;;;;;;5052302;28;20025;-80
2022/12/17 15:06:07;;;;;;;115.07;53.28;;;4.60;99.90;;;;;;5053147;28;20021;-80
2022/12/17 15:08:45;;;;;;;121.57;58.92;;;4.60;99.90;;;;;;5053639;28;20013;-80
2022/12/17 15:11:14;;;;;;;119.25;56.72;;;4.60;99.90;;;;;;5053502;28;20104;-78
2022/12/17 15:13:40;;;;;;;107.15;54.15;;;4.60;99.90;;;;;;5068826;28;20108;-80
2022/12/17 15:16:06;;;;;;;101.13;50.28;;;4.60;99.90;;;;;;5053984;28;20074;-79
2022/12/17 15:18:32;;;;;;;100.20;47.50;;;4.60;99.90;;;;;;5072608;28;20064;-79
2022/12/17 15:20:58;;;;;;;91.10;44.25;;;4.50;99.90;;;;;;5072626;28;20075;-80
2022/12/17 15:23:24;;;;;;;90.22;43.42;;;4.50;99.90;;;;;;5072467;28;20349;-80
2022/12/17 15:25:52;;;;;;;84.97;43.13;;;4.60;99.90;;;;;;5074808;28;20046;-81
2022/12/17 15:28:19;;;;;;;93.78;45.30;;;4.50;99.90;;;;;;5076354;28;20016;-80
2022/12/17 15:30:46;;;;;;;98.13;45.85;;;4.50;99.90;;;;;;5075714;28;20460;-78
2022/12/17 15:33:12;;;;;;;110.20;51.90;;;4.50;99.90;;;;;;5076973;28;20112;-79
2022/12/17 15:35:39;;;;;;;115.15;54.22;;;4.50;99.90;;;;;;5093373;28;20482;-77
2022/12/17 15:38:11;;;;;;;109.70;53.25;;;4.50;99.90;;;;;;5086510;28;20023;-82
2022/12/17 15:40:40;;;;;;;109.40;53.45;;;4.50;99.90;;;;;;5081258;28;20472;-79
2022/12/17 15:43:12;;;;;;;116.43;59.72;;;4.50;99.90;;;;;;5094272;28;20066;-79
2022/12/17 15:45:38;;;;;;;;;;;4.50;99.90;;;;;;5077707;28;20389;-80
2022/12/17 15:48:04;;;;;;;113.70;57.05;;;4.50;99.90;;;;;;5075402;28;19900;-79
2022/12/17 15:50:30;;;;;;;143.52;72.07;;;4.50;99.90;;;;;;5074132;28;20375;-81
2022/12/17 15:52:56;;;;;;;237.13;114.90;;;4.50;99.90;;;;;;5076304;28;20033;-78
2022/12/17 15:55:22;;;;;;;235.90;112.32;;;4.50;99.90;;;;;;5075401;28;20021;-79
2022/12/17 15:57:48;;;;;;;175.18;87.13;;;4.50;99.90;;;;;;5070932;28;20448;-78
2022/12/17 16:00:14;;;;;;;214.82;110.78;;;4.50;99.90;;;;;;5070700;28;20089;-78
2022/12/17 16:02:39;;;;;;;170.90;85.32;;;4.50;99.90;;;;;;5075141;28;20078;-79
2022/12/17 16:05:06;;;;;;;176.93;87.45;;;4.40;99.90;;;;;;5087590;28;20024;-79
2022/12/17 16:07:32;;;;;;;152.48;78.63;;;4.50;99.90;;;;;;5074869;28;20070;-77
2022/12/17 16:09:58;;;;;;;143.60;71.22;;;4.50;99.90;;;;;;5083420;28;20020;-78
2022/12/17 16:12:23;;;;;;;141.35;66.15;;;4.50;99.90;;;;;;5096398;28;20094;-79
2022/12/17 16:14:50;;;;;;;138.52;67.97;;;4.40;99.90;;;;;;5094440;28;20027;-78
2022/12/17 16:17:16;;;;;;;130.65;67.90;;;4.40;99.90;;;;;;5075920;28;20105;-78
2022/12/17 16:19:41;;;;;;;119.50;58.30;;;4.40;99.90;;;;;;5075067;28;20024;-78
2022/12/17 16:22:07;;;;;;;120.38;58.70;;;4.40;99.90;;;;;;5082648;28;20098;-78
2022/12/17 16:24:33;;;;;;;101.65;52.72;;;4.50;99.90;;;;;;5096397;28;20102;-79
2022/12/17 16:26:59;;;;;;;93.38;48.03;;;4.40;99.90;;;;;;5096503;28;20020;-79
2022/12/17 16:29:25;;;;;;;116.65;58.97;;;4.40;99.90;;;;;;5096252;28;20124;-78
2022/12/17 16:31:54;;;;;;;120.30;56.47;;;4.40;99.90;;;;;;5096119;28;20429;-79
2022/12/17 16:34:20;;;;;;;89.82;45.33;;;4.40;99.90;;;;;;5096437;28;20027;-77
2022/12/17 16:36:45;;;;;;;102.63;49.20;;;4.40;99.90;;;;;;5095334;28;20020;-76
2022/12/17 16:39:16;;;;;;;78.22;40.65;;;4.40;99.90;;;;;;5096279;28;20024;-79
2022/12/17 16:41:43;;;;;;;86.60;44.33;;;4.40;99.90;;;;;;5095819;28;20020;-78
2022/12/17 16:44:09;;;;;;;98.70;50.55;;;4.40;99.90;;;;;;5076545;28;20417;-79
2022/12/17 16:46:38;;;;;;;108.60;55.92;;;4.40;99.90;;;;;;5074629;28;20111;-78
2022/12/17 16:49:07;;;;;;;113.68;55.50;;;4.50;99.90;;;;;;5074516;28;20105;-79
2022/12/17 16:51:33;;;;;;;104.95;56.55;;;4.40;99.90;;;;;;5075547;28;20017;-78
2022/12/17 16:54:09;;;;;;;124.40;62.20;;;4.40;99.90;;;;;;5075603;28;20455;-79
2022/12/17 16:56:35;;;;;;;91.68;47.75;;;4.40;99.90;;;;;;5054313;28;20017;-80
2022/12/17 16:59:03;;;;;;;102.30;50.50;;;4.40;99.90;;;;;;5072520;28;20078;-78
2022/12/17 17:01:29;;;;;;;105.07;50.45;;;4.40;99.90;;;;;;5060608;28;20044;-77
2022/12/17 17:03:56;;;;;;;114.07;56.88;;;4.40;99.90;;;;;;5073204;28;20115;-79
2022/12/17 17:06:23;;;;;;;107.07;52.15;;;4.50;99.90;;;;;;5074979;28;20100;-78
2022/12/17 17:08:48;;;;;;;111.93;54.45;;;4.40;99.90;;;;;;5073931;28;20107;-79
2022/12/17 17:11:22;;;;;;;112.45;53.00;;;4.40;99.90;;;;;;5076903;28;20107;-80
2022/12/17 17:13:50;;;;;;;112.88;54.22;;;4.40;99.90;;;;;;5083572;28;20040;-79
2022/12/17 17:16:18;;;;;;;103.97;49.40;;;4.50;99.90;;;;;;5076268;28;20043;-79
2022/12/17 17:18:44;;;;;;;106.88;52.17;;;4.40;99.90;;;;;;5074206;28;20047;-80
2022/12/17 17:21:20;;;;;;;123.90;59.92;;;4.40;99.90;;;;;;5062944;28;20029;-79
2022/12/17 17:23:47;;;;;;;148.10;69.97;;;4.40;99.90;;;;;;5071669;28;20036;-79
2022/12/17 17:26:14;;;;;;;172.25;81.25;;;4.40;99.90;;;;;;5073519;28;20017;-79
2022/12/17 17:28:40;;;;;;;205.55;96.85;;;4.40;99.90;;;;;;5074092;28;20147;-78
2022/12/17 17:31:09;;;;;;;122.32;63.22;;;4.50;99.90;;;;;;5074770;28;20064;-78
2022/12/17 17:33:38;;;;;;;136.60;65.13;;;4.40;99.90;;;;;;5073221;28;20055;-78
2022/12/17 17:36:13;;;;;;;132.93;64.88;;;4.50;99.90;;;;;;5074056;28;20028;-78
2022/12/17 17:38:40;;;;;;;111.03;51.83;;;4.40;99.90;;;;;;5074907;28;20440;-77
2022/12/17 17:41:09;;;;;;;120.88;56.53;;;4.40;99.90;;;;;;5078670;28;20103;-76
2022/12/17 17:43:35;;;;;;;132.20;67.97;;;4.40;99.90;;;;;;5074556;28;20077;-78
2022/12/17 17:46:16;;;;;;;116.22;57.38;;;4.40;99.90;;;;;;5073414;28;20020;-76
2022/12/17 17:48:43;;;;;;;121.67;59.37;;;4.30;99.90;;;;;;5074467;28;20024;-77
2022/12/17 17:51:17;;;;;;;100.45;50.25;;;4.40;99.90;;;;;;5073192;28;20020;-78
2022/12/17 17:53:45;;;;;;;113.22;53.78;;;4.30;99.90;;;;;;5074659;28;20020;-79
2022/12/17 17:56:14;;;;;;;142.80;65.82;;;4.30;99.90;;;;;;5074691;28;20025;-79
2022/12/17 17:58:55;;;;;;;114.38;55.75;;;4.30;99.90;;;;;;5072968;28;20107;-76
2022/12/17 18:01:23;;;;;;;131.65;61.90;;;4.30;99.90;;;;;;5074058;28;20016;-76
2022/12/17 18:03:50;;;;;;;131.75;59.83;;;4.30;99.90;;;;;;5074265;28;20024;-77
2022/12/17 18:06:16;;;;;;;155.73;65.70;;;4.20;99.90;;;;;;5075153;28;20024;-79
2022/12/17 18:08:42;;;;;;;129.63;58.60;;;4.30;99.90;;;;;;5092786;28;20371;-78
2022/12/17 18:11:13;;;;;;;101.88;50.90;;;4.20;99.90;;;;;;5093948;28;20119;-78
2022/12/17 18:13:55;;;;;;;123.80;56.92;;;4.20;99.90;;;;;;5094194;28;20023;-78
2022/12/17 18:16:29;;;;;;;118.72;56.58;;;4.20;99.90;;;;;;5093070;28;20035;-80
2022/12/17 18:18:58;;;;;;;127.93;60.03;;;4.20;99.90;;;;;;5072400;28;20040;-78
2022/12/17 18:21:26;;;;;;;107.13;53.10;;;4.20;99.90;;;;;;5084965;28;20031;-77
2022/12/17 18:23:59;;;;;;;112.90;52.60;;;4.20;99.90;;;;;;5072575;28;20028;-78
2022/12/17 18:26:27;;;;;;;94.93;42.53;;;4.10;99.90;;;;;;5085585;28;20051;-78
2022/12/17 18:28:53;;;;;;;90.32;41.85;;;4.10;99.90;;;;;;5093339;28;20021;-77
2022/12/17 18:31:24;;;;;;;108.93;48.92;;;4.10;99.90;;;;;;5073908;28;20020;-76
2022/12/17 18:33:54;;;;;;;103.35;48.45;;;4.10;99.90;;;;;;5072423;28;20025;-78
2022/12/17 18:36:22;;;;;;;109.10;50.03;;;4.00;99.90;;;;;;5073583;28;20023;-78
2022/12/17 18:39:14;;;;;;;130.43;57.30;;;4.00;99.90;;;;;;5073463;28;20032;-78
2022/12/17 18:44:25;;;;;;;81.13;40.53;;;4.00;99.90;;;;;;5053851;28;20044;-78
2022/12/17 18:46:51;;;;;;;97.20;45.03;;;3.90;99.90;;;;;;5071170;28;20025;-79
2022/12/17 18:49:18;;;;;;;92.18;43.38;;;4.00;99.90;;;;;;5073555;28;20075;-78
2022/12/17 18:51:47;;;;;;;82.68;41.45;;;3.90;99.90;;;;;;5073191;28;20029;-78
2022/12/17 18:54:22;;;;;;;94.55;45.65;;;3.90;99.90;;;;;;5072961;28;20028;-78
2022/12/17 18:56:48;;;;;;;84.18;41.90;;;3.90;99.90;;;;;;5066795;28;20409;-79
2022/12/17 18:59:17;;;;;;;96.82;48.33;;;3.90;99.90;;;;;;5071333;28;20482;-78
2022/12/17 19:01:44;;;;;;;103.93;50.50;;;3.90;99.90;;;;;;5076285;28;20024;-80
2022/12/17 19:04:13;;;;;;;107.72;50.65;;;4.00;99.90;;;;;;5076642;28;20028;-79
2022/12/17 19:06:39;;;;;;;102.63;50.05;;;4.00;99.90;;;;;;5075839;28;20031;-78
2022/12/17 19:09:07;;;;;;;118.82;56.30;;;3.90;99.90;;;;;;5076786;28;20066;-78
2022/12/17 19:11:34;;;;;;;105.55;51.58;;;4.00;99.90;;;;;;5077270;28;20108;-78
2022/12/17 19:14:00;;;;;;;106.50;50.88;;;4.00;99.90;;;;;;5076928;28;20020;-78
2022/12/17 19:16:27;;;;;;;93.28;47.30;;;3.90;99.90;;;;;;5075384;28;20036;-78
2022/12/17 19:19:01;;;;;;;86.25;41.88;;;4.00;99.90;;;;;;5076299;28;20045;-77
2022/12/17 19:21:28;;;;;;;89.28;45.25;;;3.90;99.90;;;;;;5075951;28;20112;-78
2022/12/17 19:23:57;;;;;;;122.72;52.15;;;3.90;99.90;;;;;;5077041;28;20024;-78
2022/12/17 19:26:23;;;;;;;95.75;45.70;;;3.90;99.90;;;;;;5076701;28;20020;-76
2022/12/17 19:28:51;;;;;;;88.63;42.63;;;4.00;99.90;;;;;;5076131;28;20035;-78
2022/12/17 19:31:19;;;;;;;98.72;49.03;;;3.90;99.90;;;;;;5075100;28;20521;-78
2022/12/17 19:33:45;;;;;;;90.07;43.28;;;4.00;99.90;;;;;;5076922;28;20020;-76
2022/12/17 19:36:14;;;;;;;101.75;49.53;;;3.90;99.90;;;;;;5076037;28;20021;-78
2022/12/17 19:38:40;;;;;;;107.95;50.88;;;4.00;99.90;;;;;;5065298;28;20536;-75
2022/12/17 19:41:10;;;;;;;139.57;58.95;;;4.00;99.90;;;;;;5072209;28;20032;-78
2022/12/17 19:43:37;;;;;;;95.65;47.72;;;3.90;99.90;;;;;;5076699;28;20029;-76
2022/12/17 19:46:13;;;;;;;85.70;43.55;;;3.90;99.90;;;;;;5075464;28;20017;-78
2022/12/17 19:48:39;;;;;;;90.35;47.08;;;3.90;99.90;;;;;;5076110;28;20020;-77
2022/12/17 19:51:07;;;;;;;88.35;45.97;;;3.90;99.90;;;;;;5074385;28;20379;-76
2022/12/17 19:53:34;;;;;;;88.75;40.05;;;3.90;99.90;;;;;;5076357;28;20016;-78
2022/12/17 19:56:12;;;;;;;78.88;39.45;;;3.90;99.90;;;;;;5076125;28;20029;-77
2022/12/17 19:58:41;;;;;;;85.93;41.60;;;3.90;99.90;;;;;;5075996;28;20047;-77
2022/12/17 20:01:10;;;;;;;92.45;46.03;;;3.90;99.90;;;;;;5075511;28;20377;-78
2022/12/17 20:03:37;;;;;;;86.05;42.03;;;3.90;99.90;;;;;;5075624;28;20094;-77
2022/12/17 20:06:03;;;;;;;90.10;44.60;;;3.90;99.90;;;;;;5075632;28;20447;-77
2022/12/17 20:08:30;;;;;;;90.50;46.10;;;3.90;99.90;;;;;;5075698;28;20019;-77
2022/12/17 20:10:57;;;;;;;84.63;40.85;;;3.90;99.90;;;;;;5074287;28;20036;-78
2022/12/17 20:13:23;;;;;;;85.63;42.65;;;3.90;99.90;;;;;;5074245;28;20020;-77
2022/12/17 20:16:04;;;;;;;92.63;44.95;;;3.90;99.90;;;;;;5065752;28;20467;-76
2022/12/17 20:18:31;;;;;;;88.97;43.55;;;3.90;99.90;;;;;;5075847;28;20051;-76
2022/12/17 20:21:04;;;;;;;85.22;41.22;;;3.80;99.90;;;;;;5075654;28;20027;-77
2022/12/17 20:23:31;;;;;;;82.80;39.00;;;3.80;99.90;;;;;;5076223;28;20344;-77
2022/12/17 20:26:04;;;;;;;82.22;39.47;;;3.80;99.90;;;;;;5076164;28;20059;-77
2022/12/17 20:28:31;;;;;;;146.20;63.25;;;3.80;99.90;;;;;;5076012;28;20016;-78
2022/12/17 20:30:57;;;;;;;138.95;65.30;;;3.80;99.90;;;;;;5074324;28;20028;-76
2022/12/17 20:33:23;;;;;;;117.32;56.30;;;3.80;99.90;;;;;;5074611;28;20074;-76
2022/12/17 20:35:48;;;;;;;132.73;65.40;;;3.70;99.90;;;;;;5072941;28;20032;-78
2022/12/17 20:38:14;;;;;;;118.88;57.13;;;3.70;99.90;;;;;;5073750;28;20409;-79
2022/12/17 20:40:41;;;;;;;107.47;52.78;;;3.70;99.90;;;;;;5074251;28;20028;-79
2022/12/17 20:43:07;;;;;;;101.43;49.40;;;3.70;99.90;;;;;;5074943;28;20036;-77
2022/12/17 20:45:33;;;;;;;90.47;44.83;;;3.60;99.90;;;;;;5074813;28;20024;-79
2022/12/17 20:47:59;;;;;;;80.78;42.72;;;3.60;99.90;;;;;;5073317;28;20025;-78
2022/12/17 20:50:25;;;;;;;87.72;43.88;;;3.60;99.90;;;;;;5073523;28;20035;-79
2022/12/17 20:52:51;;;;;;;92.90;46.78;;;3.60;99.90;;;;;;5074122;28;20463;-78
2022/12/17 20:55:17;;;;;;;88.30;43.83;;;3.60;99.90;;;;;;5074902;28;20078;-78
2022/12/17 20:57:43;;;;;;;77.65;38.67;;;3.70;99.90;;;;;;5074753;28;20024;-79
2022/12/17 21:00:09;;;;;;;95.15;45.90;;;3.70;99.90;;;;;;5074432;28;20052;-78
2022/12/17 21:02:35;;;;;;;88.88;41.20;;;3.70;99.90;;;;;;5074499;28;20028;-79
2022/12/17 21:05:02;;;;;;;81.57;41.60;;;3.70;99.90;;;;;;5075633;28;20019;-79
2022/12/17 21:07:28;;;;;;;79.35;38.28;;;3.70;99.90;;;;;;5074832;28;20490;-79
2022/12/17 21:09:54;;;;;;;82.43;39.60;;;3.70;99.90;;;;;;5075339;28;20375;-80
2022/12/17 21:12:20;;;;;;;84.72;42.95;;;3.70;99.90;;;;;;5074918;28;20074;-79
2022/12/17 21:14:46;;;;;;;81.75;40.25;;;3.70;99.90;;;;;;5074794;28;20025;-79
2022/12/17 21:17:14;;;;;;;86.07;39.67;;;3.70;99.90;;;;;;5074549;28;20016;-77
2022/12/17 21:19:40;;;;;;;93.90;46.40;;;3.60;99.90;;;;;;5075242;28;20013;-76
2022/12/17 21:22:06;;;;;;;80.50;41.03;;;3.70;99.90;;;;;;5073324;28;20451;-76
2022/12/17 21:24:32;;;;;;;81.57;40.75;;;3.60;99.90;;;;;;5074116;28;20515;-77
2022/12/17 21:26:58;;;;;;;90.63;46.47;;;3.60;99.90;;;;;;5073162;28;20034;-75
2022/12/17 21:29:23;;;;;;;127.15;59.88;;;3.70;99.90;;;;;;5073814;28;20024;-77
2022/12/17 21:31:51;;;;;;;94.78;46.80;;;3.70;99.90;;;;;;5083253;28;20032;-76
2022/12/17 21:34:20;;;;;;;91.72;44.45;;;3.70;99.90;;;;;;5093621;28;20105;-78
2022/12/17 21:36:47;;;;;;;102.15;46.63;;;3.70;99.90;;;;;;5088350;28;20016;-78
2022/12/17 21:39:14;;;;;;;96.47;44.45;;;3.70;99.90;;;;;;5074312;28;20021;-78
2022/12/17 21:43:00;;;;;;;94.70;43.35;;;3.70;99.90;;;;;;5073977;28;20473;-76
2022/12/17 21:44:31;;;;;;;132.35;61.78;;;3.70;99.90;;;;;;5080733;28;20028;-76
2022/12/17 21:46:56;;;;;;;100.28;48.42;;;3.60;99.90;;;;;;5088899;28;20073;-77
2022/12/17 21:49:22;;;;;;;93.82;44.20;;;3.70;99.90;;;;;;5093306;28;20016;-76
2022/12/17 21:51:48;;;;;;;88.10;43.28;;;3.70;99.90;;;;;;5074215;28;20027;-76
2022/12/17 21:54:14;;;;;;;93.40;41.90;;;3.70;99.90;;;;;;5074561;28;20025;-76
2022/12/17 21:56:39;;;;;;;94.40;39.20;;;3.60;99.90;;;;;;5073905;28;20025;-77
2022/12/17 21:59:05;;;;;;;113.78;44.90;;;3.60;99.90;;;;;;5073839;28;20036;-76
2022/12/17 22:01:33;;;;;;;105.55;42.33;;;3.60;99.90;;;;;;5074335;28;20024;-77
2022/12/17 22:04:00;;;;;;;92.03;40.35;;;3.60;99.90;;;;;;5074200;28;20111;-78
2022/12/17 22:06:28;;;;;;;74.05;35.35;;;3.60;99.90;;;;;;5073312;28;20059;-78
2022/12/17 22:08:56;;;;;;;79.18;37.38;;;3.70;99.90;;;;;;5074526;28;20027;-78
2022/12/17 22:11:24;;;;;;;82.43;36.90;;;3.60;99.90;;;;;;5073848;28;20052;-76
2022/12/17 22:14:08;;;;;;;81.90;38.30;;;3.70;99.90;;;;;;5072740;28;20020;-75
2022/12/17 22:16:45;;;;;;;89.90;41.30;;;3.60;99.90;;;;;;5073426;28;20437;-77
2022/12/17 22:19:21;;;;;;;83.72;39.28;;;3.60;99.90;;;;;;5072399;28;20543;-77
2022/12/17 22:21:48;;;;;;;90.15;42.05;;;3.60;99.90;;;;;;5052557;28;20029;-76
2022/12/17 22:24:17;;;;;;;98.03;43.10;;;3.60;99.90;;;;;;5056425;28;20394;-77
2022/12/17 22:26:43;;;;;;;88.93;40.97;;;3.60;99.90;;;;;;5073434;28;20359;-75
2022/12/17 22:29:09;;;;;;;83.78;38.42;;;3.70;99.90;;;;;;5072455;28;20435;-75
2022/12/17 22:34:19;;;;;;;79.57;38.28;;;3.70;99.90;;;;;;5072999;28;20422;-76
2022/12/17 22:36:44;;;;;;;76.93;37.25;;;3.60;99.90;;;;;;5073626;28;20467;-75
2022/12/17 22:39:13;;;;;;;65.68;32.92;;;3.60;99.90;;;;;;5073225;28;20112;-76
2022/12/17 22:44:24;;;;;;;74.50;36.13;;;3.50;99.90;;;;;;5053313;28;20044;-76
2022/12/17 22:46:50;;;;;;;87.43;44.58;;;3.60;99.90;;;;;;5053711;28;20098;-75
2022/12/17 22:49:16;;;;;;;75.72;36.13;;;3.60;99.90;;;;;;5053219;28;20448;-75
2022/12/17 22:51:42;;;;;;;75.05;32.97;;;3.50;99.90;;;;;;5053215;28;20033;-75
2022/12/17 22:54:10;;;;;;;79.57;38.00;;;3.50;99.90;;;;;;5053555;28;20021;-77
2022/12/17 22:56:37;;;;;;;78.03;37.13;;;3.50;99.90;;;;;;5053036;28;20438;-77
2022/12/17 22:59:03;;;;;;;79.95;37.42;;;3.60;99.90;;;;;;5053528;28;20028;-77
2022/12/17 23:01:30;;;;;;;70.50;35.13;;;3.60;99.90;;;;;;5052157;28;20029;-77
2022/12/17 23:03:58;;;;;;;68.25;34.28;;;3.50;99.90;;;;;;5053020;28;20345;-77
2022/12/17 23:06:24;;;;;;;78.55;38.20;;;3.50;99.90;;;;;;5069932;28;20432;-78
2022/12/17 23:08:50;;;;;;;77.50;36.78;;;3.50;99.90;;;;;;5072925;28;20039;-77
2022/12/17 23:11:22;;;;;;;69.15;33.53;;;3.50;99.90;;;;;;5071486;28;20410;-77
2022/12/17 23:13:49;;;;;;;71.53;33.55;;;3.50;99.90;;;;;;5072530;28;20020;-76
2022/12/17 23:16:15;;;;;;;90.10;38.80;;;3.50;99.90;;;;;;5072289;28;20042;-77
2022/12/17 23:18:42;;;;;;;115.65;45.70;;;3.40;99.90;;;;;;5072812;28;20051;-79
2022/12/17 23:21:22;;;;;;;128.07;51.03;;;3.50;99.90;;;;;;5072809;28;20479;-77
2022/12/17 23:23:49;;;;;;;72.40;33.75;;;3.50;99.90;;;;;;5072598;28;20029;-78
2022/12/17 23:26:23;;;;;;;76.88;36.55;;;3.50;99.90;;;;;;5068523;28;20031;-76
2022/12/17 23:28:53;;;;;;;90.50;39.45;;;3.40;99.90;;;;;;5072556;28;20093;-78
2022/12/17 23:31:20;;;;;;;78.70;36.00;;;3.40;99.90;;;;;;5073060;28;20020;-77
2022/12/17 23:33:46;;;;;;;70.15;32.72;;;3.40;99.90;;;;;;5073229;28;20114;-77
2022/12/17 23:36:21;;;;;;;70.65;31.65;;;3.40;99.90;;;;;;5072809;28;20062;-78
2022/12/17 23:38:48;;;;;;;65.82;30.30;;;3.30;99.90;;;;;;5073345;28;20016;-78
2022/12/17 23:41:20;;;;;;;70.63;31.35;;;3.30;99.90;;;;;;5071694;28;20059;-78
2022/12/17 23:43:46;;;;;;;63.97;29.10;;;3.30;99.90;;;;;;5073352;28;20419;-79
2022/12/17 23:46:12;;;;;;;62.80;27.70;;;3.30;99.90;;;;;;5073082;28;20086;-79
2022/12/17 23:48:41;;;;;;;64.82;30.45;;;3.30;99.90;;;;;;5076601;28;20467;-79
2022/12/17 23:51:08;;;;;;;73.43;34.60;;;3.30;99.90;;;;;;5076250;28;20028;-78
2022/12/17 23:53:35;;;;;;;73.53;32.50;;;3.40;99.90;;;;;;5076926;28;20020;-77
2022/12/17 23:56:10;;;;;;;89.07;40.60;;;3.30;99.90;;;;;;5076359;28;20099;-77
2022/12/17 23:58:37;;;;;;;76.28;35.25;;;3.30;99.90;;;;;;5076790;28;20451;-78
